sensor_id;sensor_type;location;lat;lon;timestamp;temperature;humidity
11536;DHT22;5824;49.336;8.652;2023-05-10T00:00:13;14.30;50.40
11536;DHT22;5824;49.336;8.652;2023-05-10T00:02:39;14.30;54.60
11536;DHT22;5824;49.336;8.652;2023-05-10T00:05:05;14.30;59.40
11536;DHT22;5824;49.336;8.652;2023-05-10T00:07:30;14.30;52.50
11536;DHT22;5824;49.336;8.652;2023-05-10T00:09:56;14.30;51.70
11536;DHT22;5824;49.336;8.652;2023-05-10T00:12:21;14.30;62.90
11536;DHT22;5824;49.336;8.652;2023-05-10T00:14:47;14.30;52.60
11536;DHT22;5824;49.336;8.652;2023-05-10T00:17:12;14.30;58.50
11536;DHT22;5824;49.336;8.652;2023-05-10T00:19:38;14.30;56.90
11536;DHT22;5824;49.336;8.652;2023-05-10T00:22:03;14.30;59.80
11536;DHT22;5824;49.336;8.652;2023-05-10T00:24:29;14.30;57.60
11536;DHT22;5824;49.336;8.652;2023-05-10T00:26:54;14.20;59.40
11536;DHT22;5824;49.336;8.652;2023-05-10T00:29:20;14.20;61.50
11536;DHT22;5824;49.336;8.652;2023-05-10T00:31:45;14.20;62.20
11536;DHT22;5824;49.336;8.652;2023-05-10T00:34:11;14.30;69.30
11536;DHT22;5824;49.336;8.652;2023-05-10T00:36:36;14.40;69.30
11536;DHT22;5824;49.336;8.652;2023-05-10T00:39:03;14.30;60.20
11536;DHT22;5824;49.336;8.652;2023-05-10T00:41:29;14.30;62.50
11536;DHT22;5824;49.336;8.652;2023-05-10T00:43:57;14.30;62.30
11536;DHT22;5824;49.336;8.652;2023-05-10T00:46:22;14.20;59.60
11536;DHT22;5824;49.336;8.652;2023-05-10T00:48:48;14.20;63.70
11536;DHT22;5824;49.336;8.652;2023-05-10T00:51:14;14.30;67.20
11536;DHT22;5824;49.336;8.652;2023-05-10T00:53:40;14.30;64.50
11536;DHT22;5824;49.336;8.652;2023-05-10T00:56:06;14.30;62.10
11536;DHT22;5824;49.336;8.652;2023-05-10T00:58:31;14.30;66.40
11536;DHT22;5824;49.336;8.652;2023-05-10T01:00:57;14.30;64.60
11536;DHT22;5824;49.336;8.652;2023-05-10T01:03:24;14.30;59.60
11536;DHT22;5824;49.336;8.652;2023-05-10T01:05:49;14.20;58.70
11536;DHT22;5824;49.336;8.652;2023-05-10T01:08:15;14.20;62.50
11536;DHT22;5824;49.336;8.652;2023-05-10T01:10:41;14.20;68.20
11536;DHT22;5824;49.336;8.652;2023-05-10T01:13:07;14.30;67.30
11536;DHT22;5824;49.336;8.652;2023-05-10T01:15:32;14.30;69.40
11536;DHT22;5824;49.336;8.652;2023-05-10T01:17:58;14.20;66.50
11536;DHT22;5824;49.336;8.652;2023-05-10T01:20:24;14.20;60.60
11536;DHT22;5824;49.336;8.652;2023-05-10T01:23:11;14.10;63.80
11536;DHT22;5824;49.336;8.652;2023-05-10T01:28:58;14.10;69.40
11536;DHT22;5824;49.336;8.652;2023-05-10T01:34:35;14.20;73.40
11536;DHT22;5824;49.336;8.652;2023-05-10T01:37:09;14.20;64.20
11536;DHT22;5824;49.336;8.652;2023-05-10T01:42:21;14.20;68.50
11536;DHT22;5824;49.336;8.652;2023-05-10T01:45:02;14.20;74.40
11536;DHT22;5824;49.336;8.652;2023-05-10T01:47:48;14.30;70.10
11536;DHT22;5824;49.336;8.652;2023-05-10T01:50:18;14.30;69.00
11536;DHT22;5824;49.336;8.652;2023-05-10T01:52:56;14.30;72.00
11536;DHT22;5824;49.336;8.652;2023-05-10T01:55:25;14.30;68.70
11536;DHT22;5824;49.336;8.652;2023-05-10T01:57:55;14.30;69.90
11536;DHT22;5824;49.336;8.652;2023-05-10T02:00:23;14.30;66.90
11536;DHT22;5824;49.336;8.652;2023-05-10T02:02:50;14.40;66.80
11536;DHT22;5824;49.336;8.652;2023-05-10T02:05:18;14.20;65.30
11536;DHT22;5824;49.336;8.652;2023-05-10T02:07:44;14.20;61.20
11536;DHT22;5824;49.336;8.652;2023-05-10T02:10:11;14.20;55.90
11536;DHT22;5824;49.336;8.652;2023-05-10T02:12:42;14.00;56.70
11536;DHT22;5824;49.336;8.652;2023-05-10T02:15:10;14.00;60.40
11536;DHT22;5824;49.336;8.652;2023-05-10T02:17:37;13.90;53.40
11536;DHT22;5824;49.336;8.652;2023-05-10T02:20:05;13.90;59.50
11536;DHT22;5824;49.336;8.652;2023-05-10T02:22:31;13.90;56.30
11536;DHT22;5824;49.336;8.652;2023-05-10T02:24:58;13.90;61.30
11536;DHT22;5824;49.336;8.652;2023-05-10T02:27:25;13.90;63.30
11536;DHT22;5824;49.336;8.652;2023-05-10T02:29:53;14.00;60.10
11536;DHT22;5824;49.336;8.652;2023-05-10T02:32:19;14.90;56.30
11536;DHT22;5824;49.336;8.652;2023-05-10T02:34:46;13.90;56.80
11536;DHT22;5824;49.336;8.652;2023-05-10T02:37:19;13.80;52.60
11536;DHT22;5824;49.336;8.652;2023-05-10T02:39:47;13.80;55.60
11536;DHT22;5824;49.336;8.652;2023-05-10T02:42:23;13.80;63.10
11536;DHT22;5824;49.336;8.652;2023-05-10T02:44:53;13.80;60.90
11536;DHT22;5824;49.336;8.652;2023-05-10T02:47:18;13.80;65.80
11536;DHT22;5824;49.336;8.652;2023-05-10T02:49:44;13.90;61.60
11536;DHT22;5824;49.336;8.652;2023-05-10T02:52:11;13.90;64.50
11536;DHT22;5824;49.336;8.652;2023-05-10T02:54:45;13.90;57.50
11536;DHT22;5824;49.336;8.652;2023-05-10T02:57:16;13.90;61.70
11536;DHT22;5824;49.336;8.652;2023-05-10T02:59:45;13.90;65.00
11536;DHT22;5824;49.336;8.652;2023-05-10T03:02:12;13.80;58.90
11536;DHT22;5824;49.336;8.652;2023-05-10T03:04:38;13.80;59.70
11536;DHT22;5824;49.336;8.652;2023-05-10T03:07:04;13.80;56.10
11536;DHT22;5824;49.336;8.652;2023-05-10T03:09:29;13.80;60.70
11536;DHT22;5824;49.336;8.652;2023-05-10T03:12:07;13.70;58.50
11536;DHT22;5824;49.336;8.652;2023-05-10T03:14:42;13.80;66.90
11536;DHT22;5824;49.336;8.652;2023-05-10T03:17:17;13.90;66.30
11536;DHT22;5824;49.336;8.652;2023-05-10T03:19:53;13.90;62.50
11536;DHT22;5824;49.336;8.652;2023-05-10T03:22:32;13.80;55.50
11536;DHT22;5824;49.336;8.652;2023-05-10T03:25:01;13.70;59.70
11536;DHT22;5824;49.336;8.652;2023-05-10T03:27:31;13.70;64.50
11536;DHT22;5824;49.336;8.652;2023-05-10T03:29:57;13.60;62.70
11536;DHT22;5824;49.336;8.652;2023-05-10T03:32:23;13.60;66.80
11536;DHT22;5824;49.336;8.652;2023-05-10T03:34:49;13.60;67.80
11536;DHT22;5824;49.336;8.652;2023-05-10T03:37:14;13.60;64.70
11536;DHT22;5824;49.336;8.652;2023-05-10T03:39:40;13.60;73.30
11536;DHT22;5824;49.336;8.652;2023-05-10T03:42:05;13.70;73.80
11536;DHT22;5824;49.336;8.652;2023-05-10T03:44:31;13.80;67.80
11536;DHT22;5824;49.336;8.652;2023-05-10T03:46:58;13.80;64.50
11536;DHT22;5824;49.336;8.652;2023-05-10T03:49:24;13.80;67.80
11536;DHT22;5824;49.336;8.652;2023-05-10T03:51:49;13.70;65.10
11536;DHT22;5824;49.336;8.652;2023-05-10T03:54:15;13.70;66.80
11536;DHT22;5824;49.336;8.652;2023-05-10T03:56:40;13.70;70.90
11536;DHT22;5824;49.336;8.652;2023-05-10T03:59:06;13.70;69.40
11536;DHT22;5824;49.336;8.652;2023-05-10T04:01:35;13.70;71.60
11536;DHT22;5824;49.336;8.652;2023-05-10T04:04:00;13.70;68.40
11536;DHT22;5824;49.336;8.652;2023-05-10T04:06:26;13.60;70.40
11536;DHT22;5824;49.336;8.652;2023-05-10T04:08:51;13.60;71.80
11536;DHT22;5824;49.336;8.652;2023-05-10T04:11:17;13.60;70.40
11536;DHT22;5824;49.336;8.652;2023-05-10T04:13:42;13.50;70.40
11536;DHT22;5824;49.336;8.652;2023-05-10T04:16:08;13.50;71.70
11536;DHT22;5824;49.336;8.652;2023-05-10T04:18:34;13.60;74.90
11536;DHT22;5824;49.336;8.652;2023-05-10T04:21:00;13.60;72.70
11536;DHT22;5824;49.336;8.652;2023-05-10T04:23:26;13.50;70.10
11536;DHT22;5824;49.336;8.652;2023-05-10T04:25:52;13.50;73.20
11536;DHT22;5824;49.336;8.652;2023-05-10T04:28:17;13.50;76.90
11536;DHT22;5824;49.336;8.652;2023-05-10T04:30:43;13.50;71.30
11536;DHT22;5824;49.336;8.652;2023-05-10T04:33:08;13.50;68.70
11536;DHT22;5824;49.336;8.652;2023-05-10T04:35:34;13.50;68.70
11536;DHT22;5824;49.336;8.652;2023-05-10T04:38:00;13.50;66.70
11536;DHT22;5824;49.336;8.652;2023-05-10T04:40:26;13.50;65.90
11536;DHT22;5824;49.336;8.652;2023-05-10T04:42:51;13.50;66.10
11536;DHT22;5824;49.336;8.652;2023-05-10T04:45:17;13.50;66.10
11536;DHT22;5824;49.336;8.652;2023-05-10T04:47:42;13.50;66.70
11536;DHT22;5824;49.336;8.652;2023-05-10T04:50:08;13.60;69.20
11536;DHT22;5824;49.336;8.652;2023-05-10T04:52:34;13.60;68.50
11536;DHT22;5824;49.336;8.652;2023-05-10T04:54:59;13.70;73.80
11536;DHT22;5824;49.336;8.652;2023-05-10T04:57:25;13.70;65.30
11536;DHT22;5824;49.336;8.652;2023-05-10T04:59:50;13.70;63.90
11536;DHT22;5824;49.336;8.652;2023-05-10T05:02:16;13.70;68.20
11536;DHT22;5824;49.336;8.652;2023-05-10T05:04:41;13.80;69.50
11536;DHT22;5824;49.336;8.652;2023-05-10T05:07:07;13.90;57.00
11536;DHT22;5824;49.336;8.652;2023-05-10T05:09:32;13.80;54.90
11536;DHT22;5824;49.336;8.652;2023-05-10T05:11:58;13.90;62.70
11536;DHT22;5824;49.336;8.652;2023-05-10T05:14:24;13.90;55.40
11536;DHT22;5824;49.336;8.652;2023-05-10T05:16:52;13.90;53.20
11536;DHT22;5824;49.336;8.652;2023-05-10T05:19:18;13.90;58.20
11536;DHT22;5824;49.336;8.652;2023-05-10T05:21:43;13.90;57.50
11536;DHT22;5824;49.336;8.652;2023-05-10T05:24:10;14.00;52.80
11536;DHT22;5824;49.336;8.652;2023-05-10T05:26:37;14.00;56.30
11536;DHT22;5824;49.336;8.652;2023-05-10T05:29:03;14.10;58.90
11536;DHT22;5824;49.336;8.652;2023-05-10T05:31:29;14.20;50.70
11536;DHT22;5824;49.336;8.652;2023-05-10T05:33:54;14.20;42.30
11536;DHT22;5824;49.336;8.652;2023-05-10T05:36:21;14.20;41.60
11536;DHT22;5824;49.336;8.652;2023-05-10T05:38:46;14.20;41.50
11536;DHT22;5824;49.336;8.652;2023-05-10T05:41:12;14.20;41.50
11536;DHT22;5824;49.336;8.652;2023-05-10T05:43:37;14.30;41.70
11536;DHT22;5824;49.336;8.652;2023-05-10T05:46:03;14.50;39.50
11536;DHT22;5824;49.336;8.652;2023-05-10T05:48:30;14.50;41.80
11536;DHT22;5824;49.336;8.652;2023-05-10T05:50:55;14.70;41.90
11536;DHT22;5824;49.336;8.652;2023-05-10T05:53:24;14.80;42.00
11536;DHT22;5824;49.336;8.652;2023-05-10T05:55:57;14.90;39.90
11536;DHT22;5824;49.336;8.652;2023-05-10T05:58:23;14.90;42.10
11536;DHT22;5824;49.336;8.652;2023-05-10T06:00:49;14.90;24.50
11536;DHT22;5824;49.336;8.652;2023-05-10T06:03:15;14.80;27.60
11536;DHT22;5824;49.336;8.652;2023-05-10T06:05:41;14.90;29.10
11536;DHT22;5824;49.336;8.652;2023-05-10T06:08:06;14.90;23.80
11536;DHT22;5824;49.336;8.652;2023-05-10T06:10:32;14.90;23.60
11536;DHT22;5824;49.336;8.652;2023-05-10T06:12:57;15.00;28.80
11536;DHT22;5824;49.336;8.652;2023-05-10T06:15:23;15.00;26.00
11536;DHT22;5824;49.336;8.652;2023-05-10T06:17:48;15.00;25.20
11536;DHT22;5824;49.336;8.652;2023-05-10T06:20:15;15.10;21.80
11536;DHT22;5824;49.336;8.652;2023-05-10T06:22:41;15.20;25.60
11536;DHT22;5824;49.336;8.652;2023-05-10T06:25:07;15.40;26.00
11536;DHT22;5824;49.336;8.652;2023-05-10T06:27:32;15.40;21.40
11536;DHT22;5824;49.336;8.652;2023-05-10T06:29:58;15.40;15.00
11536;DHT22;5824;49.336;8.652;2023-05-10T06:32:23;15.60;13.00
11536;DHT22;5824;49.336;8.652;2023-05-10T06:34:49;15.50;8.10
11536;DHT22;5824;49.336;8.652;2023-05-10T06:37:14;15.50;7.40
11536;DHT22;5824;49.336;8.652;2023-05-10T06:39:40;15.50;8.40
11536;DHT22;5824;49.336;8.652;2023-05-10T06:42:05;15.60;14.30
11536;DHT22;5824;49.336;8.652;2023-05-10T06:44:31;15.60;9.90
11536;DHT22;5824;49.336;8.652;2023-05-10T06:46:56;15.50;4.10
11536;DHT22;5824;49.336;8.652;2023-05-10T06:49:22;15.50;4.30
11536;DHT22;5824;49.336;8.652;2023-05-10T06:51:47;15.70;3.40
11536;DHT22;5824;49.336;8.652;2023-05-10T06:54:13;15.70;3.00
11536;DHT22;5824;49.336;8.652;2023-05-10T06:56:39;15.80;2.80
11536;DHT22;5824;49.336;8.652;2023-05-10T06:59:05;15.80;1.00
11536;DHT22;5824;49.336;8.652;2023-05-10T07:01:30;15.80;1.00
11536;DHT22;5824;49.336;8.652;2023-05-10T07:03:56;15.80;1.00
11536;DHT22;5824;49.336;8.652;2023-05-10T07:06:21;15.70;1.00
11536;DHT22;5824;49.336;8.652;2023-05-10T07:08:47;15.70;1.00
11536;DHT22;5824;49.336;8.652;2023-05-10T07:11:12;15.70;1.00
11536;DHT22;5824;49.336;8.652;2023-05-10T07:13:38;15.80;1.00
11536;DHT22;5824;49.336;8.652;2023-05-10T07:16:06;15.70;1.00
11536;DHT22;5824;49.336;8.652;2023-05-10T07:18:33;15.90;1.00
11536;DHT22;5824;49.336;8.652;2023-05-10T07:20:58;16.10;1.00
11536;DHT22;5824;49.336;8.652;2023-05-10T07:23:24;16.20;1.00
11536;DHT22;5824;49.336;8.652;2023-05-10T07:25:50;16.70;1.00
11536;DHT22;5824;49.336;8.652;2023-05-10T07:28:19;16.70;1.00
11536;DHT22;5824;49.336;8.652;2023-05-10T07:30:45;16.70;1.00
11536;DHT22;5824;49.336;8.652;2023-05-10T07:33:13;16.80;1.00
11536;DHT22;5824;49.336;8.652;2023-05-10T07:35:39;16.70;1.00
11536;DHT22;5824;49.336;8.652;2023-05-10T07:38:05;16.70;1.00
11536;DHT22;5824;49.336;8.652;2023-05-10T07:40:31;16.60;1.00
11536;DHT22;5824;49.336;8.652;2023-05-10T07:42:56;16.70;1.00
11536;DHT22;5824;49.336;8.652;2023-05-10T07:45:22;17.00;1.00
11536;DHT22;5824;49.336;8.652;2023-05-10T07:47:48;17.30;1.00
11536;DHT22;5824;49.336;8.652;2023-05-10T07:50:14;17.50;1.00
11536;DHT22;5824;49.336;8.652;2023-05-10T07:52:39;17.80;1.00
11536;DHT22;5824;49.336;8.652;2023-05-10T07:55:05;17.80;1.00
11536;DHT22;5824;49.336;8.652;2023-05-10T07:57:33;17.80;1.00
11536;DHT22;5824;49.336;8.652;2023-05-10T07:59:58;18.00;1.00
11536;DHT22;5824;49.336;8.652;2023-05-10T08:02:24;18.00;1.00
11536;DHT22;5824;49.336;8.652;2023-05-10T08:04:49;17.90;1.00
11536;DHT22;5824;49.336;8.652;2023-05-10T08:07:15;17.80;1.00
11536;DHT22;5824;49.336;8.652;2023-05-10T08:09:40;17.70;1.00
11536;DHT22;5824;49.336;8.652;2023-05-10T08:12:06;17.80;1.00
11536;DHT22;5824;49.336;8.652;2023-05-10T08:14:31;17.90;1.00
11536;DHT22;5824;49.336;8.652;2023-05-10T08:16:57;17.70;1.00
11536;DHT22;5824;49.336;8.652;2023-05-10T08:19:22;18.00;1.00
11536;DHT22;5824;49.336;8.652;2023-05-10T08:21:49;18.30;1.00
11536;DHT22;5824;49.336;8.652;2023-05-10T08:24:14;18.40;1.00
11536;DHT22;5824;49.336;8.652;2023-05-10T08:26:40;18.60;1.00
11536;DHT22;5824;49.336;8.652;2023-05-10T08:29:05;18.50;1.00
11536;DHT22;5824;49.336;8.652;2023-05-10T08:31:31;18.60;1.00
11536;DHT22;5824;49.336;8.652;2023-05-10T08:33:56;18.80;1.00
11536;DHT22;5824;49.336;8.652;2023-05-10T08:36:22;19.30;1.00
11536;DHT22;5824;49.336;8.652;2023-05-10T08:38:53;19.70;1.00
11536;DHT22;5824;49.336;8.652;2023-05-10T08:41:22;19.70;1.00
11536;DHT22;5824;49.336;8.652;2023-05-10T08:43:50;19.60;1.00
11536;DHT22;5824;49.336;8.652;2023-05-10T08:46:18;19.30;1.00
11536;DHT22;5824;49.336;8.652;2023-05-10T08:48:48;19.40;1.00
11536;DHT22;5824;49.336;8.652;2023-05-10T08:51:17;19.50;1.00
11536;DHT22;5824;49.336;8.652;2023-05-10T08:53:43;19.20;1.00
11536;DHT22;5824;49.336;8.652;2023-05-10T08:56:09;18.80;1.00
11536;DHT22;5824;49.336;8.652;2023-05-10T08:58:35;18.40;1.00
11536;DHT22;5824;49.336;8.652;2023-05-10T09:01:02;18.30;1.00
11536;DHT22;5824;49.336;8.652;2023-05-10T09:03:28;18.20;1.00
11536;DHT22;5824;49.336;8.652;2023-05-10T09:05:53;18.10;1.00
11536;DHT22;5824;49.336;8.652;2023-05-10T09:08:23;18.10;1.00
11536;DHT22;5824;49.336;8.652;2023-05-10T09:10:50;18.10;1.00
11536;DHT22;5824;49.336;8.652;2023-05-10T09:13:17;17.80;1.00
11536;DHT22;5824;49.336;8.652;2023-05-10T09:15:44;17.70;1.00
11536;DHT22;5824;49.336;8.652;2023-05-10T09:18:10;17.80;1.00
11536;DHT22;5824;49.336;8.652;2023-05-10T09:20:36;17.90;1.00
11536;DHT22;5824;49.336;8.652;2023-05-10T09:23:01;18.10;1.00
11536;DHT22;5824;49.336;8.652;2023-05-10T09:25:27;18.40;1.00
11536;DHT22;5824;49.336;8.652;2023-05-10T09:27:52;19.10;1.00
11536;DHT22;5824;49.336;8.652;2023-05-10T09:30:25;19.50;1.00
11536;DHT22;5824;49.336;8.652;2023-05-10T09:32:52;19.70;1.00
11536;DHT22;5824;49.336;8.652;2023-05-10T09:35:19;19.80;1.00
11536;DHT22;5824;49.336;8.652;2023-05-10T09:37:47;19.80;1.00
11536;DHT22;5824;49.336;8.652;2023-05-10T09:40:15;19.90;1.00
11536;DHT22;5824;49.336;8.652;2023-05-10T09:42:43;20.30;1.00
11536;DHT22;5824;49.336;8.652;2023-05-10T09:45:15;21.00;1.00
11536;DHT22;5824;49.336;8.652;2023-05-10T09:47:41;21.30;1.00
11536;DHT22;5824;49.336;8.652;2023-05-10T09:50:07;21.20;1.00
11536;DHT22;5824;49.336;8.652;2023-05-10T09:52:55;21.10;1.00
11536;DHT22;5824;49.336;8.652;2023-05-10T09:55:23;21.20;1.00
11536;DHT22;5824;49.336;8.652;2023-05-10T09:57:49;21.90;1.00
11536;DHT22;5824;49.336;8.652;2023-05-10T10:00:23;22.40;1.00
11536;DHT22;5824;49.336;8.652;2023-05-10T10:02:55;22.80;1.00
11536;DHT22;5824;49.336;8.652;2023-05-10T10:05:28;22.80;1.00
11536;DHT22;5824;49.336;8.652;2023-05-10T10:07:54;22.70;1.00
11536;DHT22;5824;49.336;8.652;2023-05-10T10:10:20;22.20;1.00
11536;DHT22;5824;49.336;8.652;2023-05-10T10:12:46;21.40;1.00
11536;DHT22;5824;49.336;8.652;2023-05-10T10:15:12;21.70;1.00
11536;DHT22;5824;49.336;8.652;2023-05-10T10:17:38;22.10;1.00
11536;DHT22;5824;49.336;8.652;2023-05-10T10:20:04;22.40;1.00
11536;DHT22;5824;49.336;8.652;2023-05-10T10:22:30;22.30;1.00
11536;DHT22;5824;49.336;8.652;2023-05-10T10:24:55;22.60;1.00
11536;DHT22;5824;49.336;8.652;2023-05-10T10:32:59;22.40;1.00
11536;DHT22;5824;49.336;8.652;2023-05-10T10:35:28;22.30;1.00
11536;DHT22;5824;49.336;8.652;2023-05-10T10:37:54;22.50;1.00
11536;DHT22;5824;49.336;8.652;2023-05-10T10:40:27;22.70;1.00
11536;DHT22;5824;49.336;8.652;2023-05-10T10:42:54;23.20;1.00
11536;DHT22;5824;49.336;8.652;2023-05-10T10:45:21;23.20;1.00
11536;DHT22;5824;49.336;8.652;2023-05-10T10:47:47;23.20;1.00
11536;DHT22;5824;49.336;8.652;2023-05-10T10:50:12;23.10;1.00
11536;DHT22;5824;49.336;8.652;2023-05-10T10:52:39;23.30;1.00
11536;DHT22;5824;49.336;8.652;2023-05-10T10:55:11;23.40;1.00
11536;DHT22;5824;49.336;8.652;2023-05-10T11:00:22;24.00;1.00
11536;DHT22;5824;49.336;8.652;2023-05-10T11:03:10;23.80;1.00
11536;DHT22;5824;49.336;8.652;2023-05-10T11:05:46;24.00;1.00
11536;DHT22;5824;49.336;8.652;2023-05-10T11:08:28;24.40;1.00
11536;DHT22;5824;49.336;8.652;2023-05-10T11:13:42;24.20;1.00
11536;DHT22;5824;49.336;8.652;2023-05-10T11:18:40;24.60;1.00
11536;DHT22;5824;49.336;8.652;2023-05-10T11:21:09;23.70;1.00
11536;DHT22;5824;49.336;8.652;2023-05-10T11:26:13;22.60;1.00
11536;DHT22;5824;49.336;8.652;2023-05-10T11:28:46;22.30;1.00
11536;DHT22;5824;49.336;8.652;2023-05-10T11:31:18;22.30;1.00
11536;DHT22;5824;49.336;8.652;2023-05-10T11:33:50;22.80;1.00
11536;DHT22;5824;49.336;8.652;2023-05-10T11:36:21;23.40;1.00
11536;DHT22;5824;49.336;8.652;2023-05-10T11:38:47;23.20;1.00
11536;DHT22;5824;49.336;8.652;2023-05-10T11:41:13;23.30;1.00
11536;DHT22;5824;49.336;8.652;2023-05-10T11:43:40;23.40;1.00
11536;DHT22;5824;49.336;8.652;2023-05-10T11:46:07;23.40;1.00
11536;DHT22;5824;49.336;8.652;2023-05-10T11:48:33;22.80;1.00
11536;DHT22;5824;49.336;8.652;2023-05-10T11:50:58;22.00;1.00
11536;DHT22;5824;49.336;8.652;2023-05-10T11:53:26;21.50;1.00
11536;DHT22;5824;49.336;8.652;2023-05-10T11:55:52;21.00;1.00
11536;DHT22;5824;49.336;8.652;2023-05-10T11:58:18;21.00;1.00
11536;DHT22;5824;49.336;8.652;2023-05-10T12:00:44;21.10;1.00
11536;DHT22;5824;49.336;8.652;2023-05-10T12:03:10;21.00;1.00
11536;DHT22;5824;49.336;8.652;2023-05-10T12:05:36;20.80;1.00
11536;DHT22;5824;49.336;8.652;2023-05-10T12:08:15;20.20;1.00
11536;DHT22;5824;49.336;8.652;2023-05-10T12:10:45;19.70;1.00
11536;DHT22;5824;49.336;8.652;2023-05-10T12:13:11;19.30;1.00
11536;DHT22;5824;49.336;8.652;2023-05-10T12:15:38;18.60;1.00
11536;DHT22;5824;49.336;8.652;2023-05-10T12:18:04;18.40;1.00
11536;DHT22;5824;49.336;8.652;2023-05-10T12:20:30;18.30;1.00
11536;DHT22;5824;49.336;8.652;2023-05-10T12:22:58;18.30;1.00
11536;DHT22;5824;49.336;8.652;2023-05-10T12:25:29;18.30;1.00
11536;DHT22;5824;49.336;8.652;2023-05-10T12:27:56;18.60;1.00
11536;DHT22;5824;49.336;8.652;2023-05-10T12:30:27;18.90;1.00
11536;DHT22;5824;49.336;8.652;2023-05-10T12:32:53;18.90;1.00
11536;DHT22;5824;49.336;8.652;2023-05-10T12:35:19;19.30;1.00
11536;DHT22;5824;49.336;8.652;2023-05-10T12:37:50;19.60;1.00
11536;DHT22;5824;49.336;8.652;2023-05-10T12:40:16;19.70;1.00
11536;DHT22;5824;49.336;8.652;2023-05-10T12:42:41;19.90;1.00
11536;DHT22;5824;49.336;8.652;2023-05-10T12:45:08;20.30;1.00
11536;DHT22;5824;49.336;8.652;2023-05-10T12:47:34;20.70;1.00
11536;DHT22;5824;49.336;8.652;2023-05-10T12:50:01;21.10;1.00
11536;DHT22;5824;49.336;8.652;2023-05-10T12:52:27;22.10;1.00
11536;DHT22;5824;49.336;8.652;2023-05-10T12:54:53;22.50;1.00
11536;DHT22;5824;49.336;8.652;2023-05-10T12:57:21;22.40;1.00
11536;DHT22;5824;49.336;8.652;2023-05-10T12:59:47;22.60;1.00
11536;DHT22;5824;49.336;8.652;2023-05-10T13:02:13;22.60;1.00
11536;DHT22;5824;49.336;8.652;2023-05-10T13:04:40;22.40;1.00
11536;DHT22;5824;49.336;8.652;2023-05-10T13:07:06;22.40;1.00
11536;DHT22;5824;49.336;8.652;2023-05-10T13:09:32;22.50;1.00
11536;DHT22;5824;49.336;8.652;2023-05-10T13:11:57;22.80;1.00
11536;DHT22;5824;49.336;8.652;2023-05-10T13:14:23;23.10;1.00
11536;DHT22;5824;49.336;8.652;2023-05-10T13:16:49;22.90;1.00
11536;DHT22;5824;49.336;8.652;2023-05-10T13:19:15;23.20;1.00
11536;DHT22;5824;49.336;8.652;2023-05-10T13:21:41;23.50;1.00
11536;DHT22;5824;49.336;8.652;2023-05-10T13:24:07;23.20;1.00
11536;DHT22;5824;49.336;8.652;2023-05-10T13:26:33;22.90;1.00
11536;DHT22;5824;49.336;8.652;2023-05-10T13:28:58;22.70;1.00
11536;DHT22;5824;49.336;8.652;2023-05-10T13:31:24;22.50;1.00
11536;DHT22;5824;49.336;8.652;2023-05-10T13:33:50;22.70;1.00
11536;DHT22;5824;49.336;8.652;2023-05-10T13:36:15;22.90;1.00
11536;DHT22;5824;49.336;8.652;2023-05-10T13:38:41;23.00;1.00
11536;DHT22;5824;49.336;8.652;2023-05-10T13:41:06;23.70;1.00
11536;DHT22;5824;49.336;8.652;2023-05-10T13:43:32;24.80;1.00
11536;DHT22;5824;49.336;8.652;2023-05-10T13:45:57;25.40;1.00
11536;DHT22;5824;49.336;8.652;2023-05-10T13:48:23;25.40;1.00
11536;DHT22;5824;49.336;8.652;2023-05-10T13:50:48;25.40;1.00
11536;DHT22;5824;49.336;8.652;2023-05-10T13:53:14;25.90;1.00
11536;DHT22;5824;49.336;8.652;2023-05-10T13:55:40;26.00;1.00
11536;DHT22;5824;49.336;8.652;2023-05-10T13:58:06;25.20;1.00
11536;DHT22;5824;49.336;8.652;2023-05-10T14:00:31;24.80;1.00
11536;DHT22;5824;49.336;8.652;2023-05-10T14:02:57;24.70;1.00
11536;DHT22;5824;49.336;8.652;2023-05-10T14:05:22;23.80;1.00
11536;DHT22;5824;49.336;8.652;2023-05-10T14:07:49;23.20;1.00
11536;DHT22;5824;49.336;8.652;2023-05-10T14:10:15;23.10;1.00
11536;DHT22;5824;49.336;8.652;2023-05-10T14:12:41;23.30;1.00
11536;DHT22;5824;49.336;8.652;2023-05-10T14:15:07;23.70;1.00
11536;DHT22;5824;49.336;8.652;2023-05-10T14:17:32;23.40;1.00
11536;DHT22;5824;49.336;8.652;2023-05-10T14:19:58;23.50;1.00
11536;DHT22;5824;49.336;8.652;2023-05-10T14:22:23;23.70;1.00
11536;DHT22;5824;49.336;8.652;2023-05-10T14:24:49;23.90;1.00
11536;DHT22;5824;49.336;8.652;2023-05-10T14:27:15;23.70;1.00
11536;DHT22;5824;49.336;8.652;2023-05-10T14:29:41;23.30;1.00
11536;DHT22;5824;49.336;8.652;2023-05-10T14:32:06;23.20;1.00
11536;DHT22;5824;49.336;8.652;2023-05-10T14:34:32;23.50;1.00
11536;DHT22;5824;49.336;8.652;2023-05-10T14:36:58;23.70;1.00
11536;DHT22;5824;49.336;8.652;2023-05-10T14:39:23;23.80;1.00
11536;DHT22;5824;49.336;8.652;2023-05-10T14:41:49;23.70;1.00
11536;DHT22;5824;49.336;8.652;2023-05-10T14:44:16;23.60;1.00
11536;DHT22;5824;49.336;8.652;2023-05-10T14:46:42;23.60;1.00
11536;DHT22;5824;49.336;8.652;2023-05-10T14:49:07;23.60;1.00
11536;DHT22;5824;49.336;8.652;2023-05-10T14:51:33;23.60;1.00
11536;DHT22;5824;49.336;8.652;2023-05-10T14:53:58;23.90;1.00
11536;DHT22;5824;49.336;8.652;2023-05-10T14:56:24;24.10;1.00
11536;DHT22;5824;49.336;8.652;2023-05-10T14:58:51;23.70;1.00
11536;DHT22;5824;49.336;8.652;2023-05-10T15:01:16;23.40;1.00
11536;DHT22;5824;49.336;8.652;2023-05-10T15:03:42;23.00;1.00
11536;DHT22;5824;49.336;8.652;2023-05-10T15:06:08;22.60;1.00
11536;DHT22;5824;49.336;8.652;2023-05-10T15:08:34;22.50;1.00
11536;DHT22;5824;49.336;8.652;2023-05-10T15:10:59;22.00;1.00
11536;DHT22;5824;49.336;8.652;2023-05-10T15:13:25;21.90;1.00
11536;DHT22;5824;49.336;8.652;2023-05-10T15:15:50;21.90;1.00
11536;DHT22;5824;49.336;8.652;2023-05-10T15:18:16;21.90;1.00
11536;DHT22;5824;49.336;8.652;2023-05-10T15:20:41;21.80;1.00
11536;DHT22;5824;49.336;8.652;2023-05-10T15:23:07;21.90;1.00
11536;DHT22;5824;49.336;8.652;2023-05-10T15:25:33;21.90;1.00
11536;DHT22;5824;49.336;8.652;2023-05-10T15:28:01;21.80;1.00
11536;DHT22;5824;49.336;8.652;2023-05-10T15:30:28;21.90;1.00
11536;DHT22;5824;49.336;8.652;2023-05-10T15:32:54;22.10;1.00
11536;DHT22;5824;49.336;8.652;2023-05-10T15:35:20;22.10;1.00
11536;DHT22;5824;49.336;8.652;2023-05-10T15:37:48;22.30;1.00
11536;DHT22;5824;49.336;8.652;2023-05-10T15:40:14;22.50;1.00
11536;DHT22;5824;49.336;8.652;2023-05-10T15:42:40;22.70;1.00
11536;DHT22;5824;49.336;8.652;2023-05-10T15:45:06;23.10;1.00
11536;DHT22;5824;49.336;8.652;2023-05-10T15:47:32;23.30;1.00
11536;DHT22;5824;49.336;8.652;2023-05-10T15:49:58;23.70;1.00
11536;DHT22;5824;49.336;8.652;2023-05-10T15:52:23;24.10;1.00
11536;DHT22;5824;49.336;8.652;2023-05-10T15:54:49;24.40;1.00
11536;DHT22;5824;49.336;8.652;2023-05-10T15:57:15;24.60;1.00
11536;DHT22;5824;49.336;8.652;2023-05-10T15:59:40;24.10;1.00
11536;DHT22;5824;49.336;8.652;2023-05-10T16:02:08;23.60;1.00
11536;DHT22;5824;49.336;8.652;2023-05-10T16:04:35;23.30;1.00
11536;DHT22;5824;49.336;8.652;2023-05-10T16:07:01;23.20;1.00
11536;DHT22;5824;49.336;8.652;2023-05-10T16:09:26;23.20;1.00
11536;DHT22;5824;49.336;8.652;2023-05-10T16:11:52;22.90;1.00
11536;DHT22;5824;49.336;8.652;2023-05-10T16:14:17;22.40;1.00
11536;DHT22;5824;49.336;8.652;2023-05-10T16:16:45;21.90;1.00